Home   Weather   USA   Laughlin   Past weeks
Flag for USA

Past Weather in Laughlin, Nevada, USA — May 2016

Currently: 52 °F. Clear. (Weather station: Laughlin/Bullhead International Airport, USA). See more current weather

May 2016 Weather in Laughlin — Graph

°F

High & Low Weather Summary for May 2016

 TemperatureHumidityPressure
High104 °F (May 31, 2:48 pm)77% (May 7, 1:55 am)30.05 "Hg (May 7, 1:55 am)
Low59 °F (May 7, 4:15 am)4% (May 12, 5:35 pm)29.55 "Hg (May 20, 3:55 pm)
Average80 °F22%29.83 "Hg
* Reported May 1 12:55 am — May 31 4:52 pm, Laughlin. Weather by CustomWeather, © 2021

Note: Actual official high and low records may vary slightly from our data, if they occured in-between our weather recording intervals... More about our weather records

Laughlin Weather History for May 1, 2016

Scroll right to see more
 ConditionsComfort  
Time TempWeatherWind HumidityBarometerVisibility
12:55 am
Sun, May 1
64 °FPassing clouds.18 mph56%29.80 "Hg10 mi
1:15 am64 °FPassing clouds.17 mph56%29.79 "Hg10 mi
1:55 am63 °FPassing clouds.16 mph59%29.80 "Hg10 mi
2:15 am63 °FPassing clouds.17 mph59%29.80 "Hg10 mi
2:55 am64 °FPassing clouds.15 mph56%29.80 "Hg10 mi
3:15 am64 °FOvercast.18 mph56%29.80 "Hg10 mi
3:35 am64 °FPassing clouds.13 mph56%29.81 "Hg10 mi
3:55 am64 °FPassing clouds.13 mph56%29.81 "Hg10 mi
4:15 am63 °FPassing clouds.16 mph59%29.81 "Hg10 mi
4:55 am63 °FClear.12 mph59%29.81 "Hg10 mi
5:15 am63 °FClear.15 mph59%29.81 "Hg10 mi
5:35 am63 °FClear.14 mph59%29.82 "Hg10 mi
5:55 am63 °FSunny.15 mph59%29.82 "Hg10 mi
6:15 am63 °FSunny.16 mph59%29.83 "Hg10 mi
6:55 am64 °FSunny.15 mph56%29.84 "Hg10 mi
7:15 am64 °FSunny.14 mph52%29.85 "Hg10 mi
7:35 am66 °FThunderstorms. Sunny.17 mph49%29.86 "Hg10 mi
7:55 am66 °FSunny.15 mph49%29.87 "Hg10 mi
8:15 am66 °FPassing clouds.15 mph52%29.87 "Hg10 mi
8:55 am70 °FSunny.18 mph43%29.88 "Hg10 mi
9:15 am70 °FSunny.16 mph40%29.88 "Hg10 mi
9:35 am72 °FSunny.18 mph38%29.88 "Hg10 mi
9:55 am73 °FSunny.17 mph36%29.89 "Hg10 mi
10:15 am73 °FSunny.16 mph33%29.89 "Hg10 mi
10:35 am73 °FSunny.16 mph31%29.89 "Hg10 mi
10:55 am75 °FSunny.20 mph29%29.89 "Hg10 mi
11:15 am75 °FSunny.16 mph27%29.89 "Hg10 mi
11:35 am75 °FPassing clouds.14 mph27%29.89 "Hg10 mi
11:55 am75 °FScattered clouds.14 mph27%29.89 "Hg10 mi
12:15 pm77 °FPassing clouds.10 mph26%29.88 "Hg10 mi
12:55 pm79 °FSunny.8 mph24%29.88 "Hg10 mi
1:15 pm79 °FSunny.9 mph24%29.88 "Hg10 mi
1:35 pm79 °FSunny.7 mph24%29.88 "Hg10 mi
1:55 pm81 °FPassing clouds.7 mph23%29.88 "Hg10 mi
2:15 pm81 °FPassing clouds.6 mph23%29.87 "Hg10 mi
2:35 pm81 °FPassing clouds.10 mph21%29.87 "Hg10 mi
2:55 pm81 °FSunny.No wind21%29.86 "Hg10 mi
3:15 pm82 °FSunny.3 mph20%29.86 "Hg10 mi
4:15 pm81 °FSunny.5 mph21%29.85 "Hg10 mi
4:55 pm82 °FSunny.8 mph19%29.85 "Hg10 mi
5:15 pm82 °FSunny.7 mph19%29.85 "Hg10 mi
5:55 pm82 °FSunny.7 mph16%29.85 "Hg10 mi
6:15 pm82 °FSunny.9 mph16%29.85 "Hg10 mi
6:55 pm81 °FSunny.8 mph17%29.86 "Hg10 mi
7:15 pm81 °FSunny.8 mph18%29.87 "Hg10 mi
7:55 pm79 °FClear.5 mph20%29.89 "Hg10 mi
8:15 pm77 °FClear.No wind22%29.89 "Hg10 mi
8:55 pm75 °FClear.13 mph25%29.91 "Hg10 mi
9:15 pm77 °FClear.10 mph26%29.92 "Hg10 mi
9:55 pm75 °FClear.7 mph27%29.93 "Hg10 mi
10:15 pm73 °FClear.3 mph31%29.94 "Hg10 mi
11:15 pm72 °FClear.No wind31%29.95 "Hg10 mi
11:35 pm70 °FClear.3 mph35%29.95 "Hg10 mi
Weather by CustomWeather, © 2021

See weather overview